createdAt,value
2023-04-15T00:00:02.692Z,7.30
2023-04-15T00:01:02.852Z,7.30
2023-04-15T00:02:02.870Z,7.30
2023-04-15T00:03:02.994Z,7.30
2023-04-15T00:04:03.025Z,7.30
2023-04-15T00:05:02.981Z,7.30
2023-04-15T00:06:03.018Z,7.30
2023-04-15T00:07:02.964Z,7.30
2023-04-15T00:08:02.989Z,7.30
2023-04-15T00:09:03.145Z,7.30
2023-04-15T00:10:03.206Z,7.30
2023-04-15T00:11:03.387Z,7.30
2023-04-15T00:12:03.362Z,7.30
2023-04-15T00:13:03.493Z,7.30
2023-04-15T00:14:03.441Z,7.30
2023-04-15T00:15:03.446Z,7.30
2023-04-15T00:16:03.434Z,7.30
2023-04-15T00:17:03.654Z,7.30
2023-04-15T00:18:02.742Z,7.30
2023-04-15T00:19:02.906Z,7.30
2023-04-15T00:20:02.849Z,7.30
2023-04-15T00:21:02.981Z,7.30
2023-04-15T00:22:02.949Z,7.30
2023-04-15T00:23:02.901Z,7.30
2023-04-15T00:24:02.911Z,7.30
2023-04-15T00:25:03.013Z,7.30
2023-04-15T00:26:03.032Z,7.30
2023-04-15T00:27:02.999Z,7.30
2023-04-15T00:28:03.099Z,7.20
2023-04-15T00:29:03.022Z,7.30
2023-04-15T00:30:03.172Z,7.30
2023-04-15T00:31:03.288Z,7.20
2023-04-15T00:32:03.302Z,7.20
2023-04-15T00:33:03.408Z,7.20
2023-04-15T00:34:03.414Z,7.20
2023-04-15T00:35:03.485Z,7.20
2023-04-15T00:36:03.615Z,7.20
2023-04-15T00:37:02.655Z,7.20
2023-04-15T00:38:02.639Z,7.20
2023-04-15T00:39:02.866Z,7.20
2023-04-15T00:40:02.798Z,7.20
2023-04-15T00:41:02.892Z,7.20
2023-04-15T00:42:02.833Z,7.20
2023-04-15T00:43:02.893Z,7.20
2023-04-15T00:44:02.894Z,7.20
2023-04-15T00:45:03.011Z,7.20
2023-04-15T00:46:03.029Z,7.20
2023-04-15T00:47:03.114Z,7.20
2023-04-15T00:48:03.184Z,7.20
2023-04-15T00:49:03.210Z,7.20
2023-04-15T00:50:03.256Z,7.20
2023-04-15T00:51:03.405Z,7.20
2023-04-15T00:52:03.471Z,7.20
2023-04-15T00:53:03.384Z,7.20
2023-04-15T00:54:03.505Z,7.10
2023-04-15T00:55:02.682Z,7.10
2023-04-15T00:56:02.809Z,7.10
2023-04-15T00:57:02.747Z,7.10
2023-04-15T00:58:02.705Z,7.10
2023-04-15T00:59:02.746Z,7.10
2023-04-15T01:00:02.783Z,7.10
2023-04-15T01:01:02.859Z,7.10
2023-04-15T01:02:03.084Z,7.10
2023-04-15T01:03:03.159Z,7.10
2023-04-15T01:04:03.201Z,7.10
2023-04-15T01:05:03.223Z,7.10
2023-04-15T01:06:04.103Z,7.10
2023-04-15T01:07:03.414Z,7.10
2023-04-15T01:08:03.532Z,7.10
2023-04-15T01:09:02.984Z,7.10
2023-04-15T01:10:02.691Z,7.10
2023-04-15T01:11:02.743Z,7.10
2023-04-15T01:12:02.821Z,7.10
2023-04-15T01:13:02.905Z,7.10
2023-04-15T01:14:02.947Z,7.00
2023-04-15T01:15:02.953Z,7.10
2023-04-15T01:16:02.963Z,7.10
2023-04-15T01:17:03.002Z,7.10
2023-04-15T01:18:03.122Z,7.10
2023-04-15T01:19:03.219Z,7.00
2023-04-15T01:20:03.128Z,7.10
2023-04-15T01:21:03.114Z,7.00
2023-04-15T01:22:03.105Z,7.00
2023-04-15T01:23:03.108Z,7.00
2023-04-15T01:24:03.134Z,7.00
2023-04-15T01:25:03.169Z,7.00
2023-04-15T01:26:03.204Z,7.00
2023-04-15T01:27:03.288Z,7.10
2023-04-15T01:28:03.319Z,7.00
2023-04-15T01:29:03.372Z,7.00
2023-04-15T01:30:03.520Z,7.10
2023-04-15T01:31:03.433Z,7.10
2023-04-15T01:32:03.492Z,7.10
2023-04-15T01:33:02.734Z,7.10
2023-04-15T01:34:02.677Z,7.00
2023-04-15T01:35:02.744Z,7.00
2023-04-15T01:36:02.742Z,7.10
2023-04-15T01:37:02.781Z,7.10
2023-04-15T01:38:02.885Z,7.10
2023-04-15T01:39:03.002Z,7.10
2023-04-15T01:40:02.842Z,7.00
2023-04-15T01:41:02.815Z,7.10
2023-04-15T01:42:03.000Z,7.00
2023-04-15T01:43:03.096Z,7.00
2023-04-15T01:44:03.366Z,7.00
2023-04-15T01:45:03.377Z,7.00
2023-04-15T01:46:03.503Z,7.10
2023-04-15T01:47:03.554Z,7.10
2023-04-15T01:48:03.584Z,7.10
2023-04-15T01:49:03.510Z,7.00
2023-04-15T01:50:03.491Z,7.00
2023-04-15T01:51:03.605Z,7.10
2023-04-15T01:52:02.696Z,7.10
2023-04-15T01:53:02.698Z,7.00
2023-04-15T01:54:02.679Z,7.10
2023-04-15T01:55:02.795Z,7.10
2023-04-15T01:56:02.840Z,7.10
2023-04-15T01:57:02.852Z,7.10
2023-04-15T01:58:02.830Z,7.10
2023-04-15T01:59:02.855Z,7.10
2023-04-15T02:00:02.779Z,7.10
2023-04-15T02:01:04.244Z,7.10
2023-04-15T02:02:02.730Z,7.10
2023-04-15T02:03:02.819Z,7.10
2023-04-15T02:04:02.818Z,7.10
2023-04-15T02:05:02.741Z,7.10
2023-04-15T02:06:02.878Z,7.10
2023-04-15T02:07:02.964Z,7.10
2023-04-15T02:08:03.005Z,7.10
2023-04-15T02:09:03.298Z,7.10
2023-04-15T02:10:03.289Z,7.10
2023-04-15T02:11:03.162Z,7.10
2023-04-15T02:12:03.264Z,7.10
2023-04-15T02:13:03.370Z,7.10
2023-04-15T02:14:03.388Z,7.10
2023-04-15T02:15:03.487Z,7.10
2023-04-15T02:16:03.563Z,7.00
2023-04-15T02:17:03.582Z,7.00
2023-04-15T02:18:02.731Z,7.10
2023-04-15T02:19:02.747Z,7.00
2023-04-15T02:20:02.746Z,7.00
2023-04-15T02:21:02.849Z,7.00
2023-04-15T02:22:02.986Z,7.00
2023-04-15T02:23:03.118Z,7.00
2023-04-15T02:24:03.253Z,7.00
2023-04-15T02:25:03.238Z,7.00
2023-04-15T02:26:03.289Z,7.00
2023-04-15T02:27:03.214Z,7.00
2023-04-15T02:28:03.247Z,7.00
2023-04-15T02:29:03.263Z,7.00
2023-04-15T02:30:03.546Z,7.00
2023-04-15T02:31:03.511Z,7.00
2023-04-15T02:32:03.478Z,7.00
2023-04-15T02:33:03.633Z,7.00
2023-04-15T02:34:02.670Z,7.00
2023-04-15T02:35:02.717Z,7.00
2023-04-15T02:36:02.736Z,7.00
2023-04-15T02:37:02.914Z,7.00
2023-04-15T02:38:02.826Z,7.00
2023-04-15T02:39:03.184Z,7.00
2023-04-15T02:40:02.908Z,7.00
2023-04-15T02:41:02.928Z,7.00
2023-04-15T02:42:03.016Z,6.90
2023-04-15T02:43:02.966Z,6.90
2023-04-15T02:44:02.986Z,6.90
2023-04-15T02:45:03.162Z,6.90
2023-04-15T02:46:03.087Z,6.90
2023-04-15T02:47:03.088Z,6.90
2023-04-15T02:48:03.111Z,6.90
2023-04-15T02:49:03.223Z,6.90
2023-04-15T02:50:03.193Z,6.90
2023-04-15T02:51:03.230Z,6.90
2023-04-15T02:52:03.344Z,6.80
2023-04-15T02:53:03.406Z,6.80
2023-04-15T02:54:03.466Z,6.80
2023-04-15T02:55:03.396Z,6.80
2023-04-15T02:56:03.449Z,6.80
2023-04-15T02:57:03.406Z,6.80
2023-04-15T02:58:03.332Z,6.80
2023-04-15T02:59:03.569Z,6.80
2023-04-15T03:00:03.594Z,6.80
2023-04-15T03:01:03.573Z,6.80
2023-04-15T03:02:02.702Z,6.80
2023-04-15T03:03:02.903Z,6.80
2023-04-15T03:04:03.040Z,6.80
2023-04-15T03:05:02.856Z,6.80
2023-04-15T03:06:02.950Z,6.80
2023-04-15T03:07:03.066Z,6.80
2023-04-15T03:08:03.188Z,6.80
2023-04-15T03:09:03.374Z,6.80
2023-04-15T03:10:03.349Z,6.80
2023-04-15T03:11:03.357Z,6.80
2023-04-15T03:12:03.468Z,6.70
2023-04-15T03:13:03.441Z,6.70
2023-04-15T03:14:03.473Z,6.70
2023-04-15T03:15:03.546Z,6.70
2023-04-15T03:16:02.629Z,6.70
2023-04-15T03:17:02.885Z,6.70
2023-04-15T03:18:02.794Z,6.70
2023-04-15T03:19:02.962Z,6.70
2023-04-15T03:20:02.905Z,6.70
2023-04-15T03:21:02.861Z,6.70
2023-04-15T03:22:02.903Z,6.70
2023-04-15T03:23:02.749Z,6.70
2023-04-15T03:24:02.660Z,6.70
2023-04-15T03:25:03.273Z,6.70
2023-04-15T03:26:03.408Z,6.70
2023-04-15T03:27:03.440Z,6.70
2023-04-15T03:28:03.557Z,6.70
2023-04-15T03:29:03.622Z,6.70
2023-04-15T03:30:03.565Z,6.70
2023-04-15T03:31:02.781Z,6.70
2023-04-15T03:32:02.710Z,6.70
2023-04-15T03:33:02.976Z,6.70
2023-04-15T03:34:02.962Z,6.70
2023-04-15T03:35:02.964Z,6.70
2023-04-15T03:36:02.975Z,6.70
2023-04-15T03:37:02.963Z,6.70
2023-04-15T03:38:02.987Z,6.70
2023-04-15T03:39:03.191Z,6.70
2023-04-15T03:40:03.131Z,6.70
2023-04-15T03:41:03.189Z,6.70
2023-04-15T03:42:03.115Z,6.60
2023-04-15T03:43:03.131Z,6.60
2023-04-15T03:44:03.275Z,6.60
2023-04-15T03:45:03.271Z,6.60
2023-04-15T03:46:03.357Z,6.60
2023-04-15T03:47:03.456Z,6.60
2023-04-15T03:48:16.349Z,6.60
2023-04-15T03:49:03.613Z,6.60
2023-04-15T03:50:02.690Z,6.60
2023-04-15T03:51:02.732Z,6.70
2023-04-15T03:52:02.727Z,6.60
2023-04-15T03:53:02.867Z,6.70
2023-04-15T03:54:02.843Z,6.70
2023-04-15T03:55:03.038Z,6.70
2023-04-15T03:56:02.983Z,6.70
2023-04-15T03:57:03.185Z,6.70
2023-04-15T03:58:03.171Z,6.70
2023-04-15T03:59:03.310Z,6.70
2023-04-15T04:00:03.136Z,6.70
2023-04-15T04:01:03.262Z,6.70
2023-04-15T04:02:03.371Z,6.70
2023-04-15T04:03:03.462Z,6.70
2023-04-15T04:04:03.330Z,6.70
2023-04-15T04:05:03.339Z,6.70
2023-04-15T04:06:03.401Z,6.70
2023-04-15T04:07:03.321Z,6.70
2023-04-15T04:08:03.419Z,6.70
2023-04-15T04:09:03.592Z,6.70
2023-04-15T04:10:03.592Z,6.70
2023-04-15T04:11:02.708Z,6.70
2023-04-15T04:12:02.678Z,6.70
2023-04-15T04:13:02.677Z,6.70
2023-04-15T04:14:02.803Z,6.70
2023-04-15T04:15:02.867Z,6.70
2023-04-15T04:16:02.887Z,6.70
2023-04-15T04:17:03.096Z,6.70
2023-04-15T04:18:03.021Z,6.70
2023-04-15T04:19:03.222Z,6.70
2023-04-15T04:20:02.972Z,6.70
2023-04-15T04:21:03.707Z,6.70
2023-04-15T04:22:02.598Z,6.70
2023-04-15T04:23:02.803Z,6.70
2023-04-15T04:24:02.794Z,6.70
2023-04-15T04:25:03.122Z,6.70
2023-04-15T04:26:03.284Z,6.70
2023-04-15T04:27:03.297Z,6.70
2023-04-15T04:28:03.356Z,6.70
2023-04-15T04:29:03.610Z,6.70
2023-04-15T04:30:03.473Z,6.60
2023-04-15T04:31:03.460Z,6.70
2023-04-15T04:32:03.602Z,6.60
2023-04-15T04:33:03.581Z,6.60
2023-04-15T04:34:02.637Z,6.60
2023-04-15T04:35:02.676Z,6.60
2023-04-15T04:36:02.733Z,6.60
2023-04-15T04:37:02.745Z,6.60
2023-04-15T04:38:02.726Z,6.60
2023-04-15T04:39:03.126Z,6.60
2023-04-15T04:40:03.040Z,6.60
2023-04-15T04:41:03.007Z,6.60
2023-04-15T04:42:02.957Z,6.60
2023-04-15T04:43:02.969Z,6.60
2023-04-15T04:44:03.009Z,6.60
2023-04-15T04:45:03.127Z,6.60
2023-04-15T04:46:03.108Z,6.60
2023-04-15T04:47:03.145Z,6.60
2023-04-15T04:48:03.115Z,6.60
2023-04-15T04:49:03.244Z,6.60
2023-04-15T04:50:03.243Z,6.60
2023-04-15T04:51:03.261Z,6.60
2023-04-15T04:52:03.202Z,6.60
2023-04-15T04:53:03.481Z,6.60
2023-04-15T04:54:03.859Z,6.60
2023-04-15T04:55:02.702Z,6.60
2023-04-15T04:56:02.856Z,6.60
2023-04-15T04:57:02.815Z,6.60
2023-04-15T04:58:02.784Z,6.60
2023-04-15T04:59:03.014Z,6.60
2023-04-15T05:00:02.882Z,6.60
2023-04-15T05:01:03.012Z,6.60
2023-04-15T05:02:03.054Z,6.60
2023-04-15T05:03:03.067Z,6.60
2023-04-15T05:04:03.260Z,6.60
2023-04-15T05:05:03.191Z,6.60
2023-04-15T05:06:03.233Z,6.60
2023-04-15T05:07:03.332Z,6.60
2023-04-15T05:08:03.197Z,6.60
2023-04-15T05:09:03.464Z,6.60
2023-04-15T05:10:03.209Z,6.60
2023-04-15T05:11:03.311Z,6.60
2023-04-15T05:12:03.389Z,6.60
2023-04-15T05:13:03.582Z,6.60
2023-04-15T05:15:02.651Z,6.60
2023-04-15T05:16:02.758Z,6.60
2023-04-15T05:17:02.840Z,6.50
2023-04-15T05:18:02.853Z,6.50
2023-04-15T05:19:03.123Z,6.50
2023-04-15T05:20:02.940Z,6.50
2023-04-15T05:21:03.045Z,6.50
2023-04-15T05:22:03.061Z,6.50
2023-04-15T05:23:02.998Z,6.50
2023-04-15T05:24:03.019Z,6.50
2023-04-15T05:25:03.077Z,6.50
2023-04-15T05:26:03.080Z,6.50
2023-04-15T05:27:03.040Z,6.50
2023-04-15T05:28:03.076Z,6.50
2023-04-15T05:29:03.083Z,6.50
2023-04-15T05:30:02.981Z,6.50
2023-04-15T05:31:03.674Z,6.50
2023-04-15T05:32:02.624Z,6.50
2023-04-15T05:33:02.742Z,6.50
2023-04-15T05:34:02.831Z,6.50
2023-04-15T05:35:02.887Z,6.50
2023-04-15T05:36:03.022Z,6.50
2023-04-15T05:37:03.083Z,6.50
2023-04-15T05:38:03.010Z,6.50
2023-04-15T05:39:03.289Z,6.50
2023-04-15T05:40:03.046Z,6.50
2023-04-15T05:41:03.065Z,6.50
2023-04-15T05:42:03.045Z,6.50
2023-04-15T05:43:03.038Z,6.50
2023-04-15T05:44:03.021Z,6.50
2023-04-15T05:45:03.171Z,6.50
2023-04-15T05:46:03.330Z,6.50
2023-04-15T05:47:03.269Z,6.50
2023-04-15T05:48:03.411Z,6.50
2023-04-15T05:49:03.558Z,6.50
2023-04-15T05:50:03.624Z,6.50
2023-04-15T05:51:03.612Z,6.50
2023-04-15T05:52:03.603Z,6.50
2023-04-15T05:53:02.732Z,6.50
2023-04-15T05:54:02.731Z,6.60
2023-04-15T05:55:02.663Z,6.50
2023-04-15T05:56:02.680Z,6.50
2023-04-15T05:57:02.732Z,6.50
2023-04-15T05:58:02.899Z,6.60
2023-04-15T05:59:03.032Z,6.60
2023-04-15T06:00:02.881Z,6.60
2023-04-15T06:01:02.910Z,6.60
2023-04-15T06:02:02.955Z,6.60
2023-04-15T06:03:03.009Z,6.60
2023-04-15T06:04:03.019Z,6.60
2023-04-15T06:05:03.206Z,6.60
2023-04-15T06:06:03.082Z,6.60
2023-04-15T06:07:03.167Z,6.60
2023-04-15T06:08:03.144Z,6.60
2023-04-15T06:09:03.403Z,6.60
2023-04-15T06:10:03.208Z,6.60
2023-04-15T06:11:03.332Z,6.60
2023-04-15T06:12:03.251Z,6.60
2023-04-15T06:13:03.518Z,6.60
2023-04-15T06:14:03.423Z,6.60
2023-04-15T06:15:03.414Z,6.60
2023-04-15T06:16:03.440Z,6.70
2023-04-15T06:17:03.475Z,6.60
2023-04-15T06:18:03.545Z,6.70
2023-04-15T06:19:02.774Z,6.60
2023-04-15T06:20:02.779Z,6.70
2023-04-15T06:21:02.871Z,6.60
2023-04-15T06:22:02.838Z,6.70
2023-04-15T06:23:02.887Z,6.70
2023-04-15T06:24:02.842Z,6.70
2023-04-15T06:25:02.926Z,6.70
2023-04-15T06:26:02.947Z,6.70
2023-04-15T06:27:02.947Z,6.70
2023-04-15T06:28:03.010Z,6.70
2023-04-15T06:29:03.185Z,6.70
2023-04-15T06:30:03.226Z,6.70
2023-04-15T06:31:03.093Z,6.70
2023-04-15T06:32:03.084Z,6.70
2023-04-15T06:33:03.271Z,6.70
2023-04-15T06:34:03.253Z,6.70
2023-04-15T06:35:03.149Z,6.80
2023-04-15T06:36:03.229Z,6.80
2023-04-15T06:37:04.455Z,6.80
2023-04-15T06:38:03.237Z,6.80
2023-04-15T06:39:03.419Z,6.80
2023-04-15T06:40:03.167Z,6.80
2023-04-15T06:41:03.044Z,6.80
2023-04-15T06:42:03.044Z,6.80
2023-04-15T06:43:03.082Z,6.80
2023-04-15T06:44:03.128Z,6.80
2023-04-15T06:45:03.248Z,6.80
2023-04-15T06:46:03.174Z,6.80
2023-04-15T06:47:03.173Z,6.80
2023-04-15T06:48:03.257Z,6.90
2023-04-15T06:49:03.377Z,6.90
2023-04-15T06:50:03.225Z,6.90
2023-04-15T06:51:03.384Z,6.90
2023-04-15T06:52:03.270Z,6.90
2023-04-15T06:53:03.413Z,6.90
2023-04-15T06:54:02.766Z,6.90
2023-04-15T06:55:02.808Z,6.90
2023-04-15T06:56:02.841Z,6.90
2023-04-15T06:57:02.803Z,6.90
2023-04-15T06:58:03.144Z,6.90
2023-04-15T06:59:03.327Z,6.90
2023-04-15T07:00:03.264Z,6.90
2023-04-15T07:01:03.382Z,6.90
2023-04-15T07:02:03.494Z,6.90
2023-04-15T07:03:03.329Z,6.90
2023-04-15T07:04:03.412Z,6.90
2023-04-15T07:05:03.418Z,6.90
2023-04-15T07:06:03.425Z,6.90
2023-04-15T07:07:03.314Z,6.90
2023-04-15T07:08:03.493Z,6.90
2023-04-15T07:09:03.796Z,6.90
2023-04-15T07:10:03.624Z,6.90
2023-04-15T07:11:03.551Z,6.90
2023-04-15T07:12:02.796Z,6.90
2023-04-15T07:13:02.887Z,6.90
2023-04-15T07:14:03.021Z,6.90
2023-04-15T07:15:03.042Z,6.90
2023-04-15T07:16:03.000Z,6.90
2023-04-15T07:17:03.025Z,6.90
2023-04-15T07:18:03.088Z,6.90
2023-04-15T07:19:03.215Z,6.90
2023-04-15T07:20:02.921Z,7.00
2023-04-15T07:21:02.937Z,7.00
2023-04-15T07:22:02.900Z,7.00
2023-04-15T07:23:02.870Z,7.00
2023-04-15T07:24:02.829Z,7.00
2023-04-15T07:25:02.758Z,7.00
2023-04-15T07:26:02.878Z,7.00
2023-04-15T07:27:02.939Z,7.00
2023-04-15T07:28:02.920Z,7.00
2023-04-15T07:29:03.291Z,7.00
2023-04-15T07:30:03.044Z,7.00
2023-04-15T07:31:03.184Z,7.00
2023-04-15T07:32:03.074Z,7.00
2023-04-15T07:33:03.099Z,7.00
2023-04-15T07:34:03.230Z,7.00
2023-04-15T07:35:03.182Z,7.00
2023-04-15T07:36:03.321Z,7.00
2023-04-15T07:37:03.233Z,7.00
2023-04-15T07:38:03.203Z,7.00
2023-04-15T07:39:04.419Z,7.00
2023-04-15T07:40:03.462Z,7.00
2023-04-15T07:41:03.429Z,7.00
2023-04-15T07:42:03.447Z,7.00
2023-04-15T07:43:03.550Z,7.00
2023-04-15T07:44:03.496Z,7.00
2023-04-15T07:45:03.595Z,7.00
2023-04-15T07:46:03.655Z,7.00
2023-04-15T07:47:03.578Z,7.00
2023-04-15T07:48:03.657Z,7.00
2023-04-15T07:49:03.734Z,7.00
2023-04-15T07:50:02.698Z,7.00
2023-04-15T07:51:02.709Z,7.00
2023-04-15T07:52:02.696Z,7.00
2023-04-15T07:53:02.672Z,7.00
2023-04-15T07:54:02.627Z,7.10
2023-04-15T07:55:02.773Z,7.00
2023-04-15T07:56:02.723Z,7.00
2023-04-15T07:57:02.848Z,7.00
2023-04-15T07:58:02.750Z,7.00
2023-04-15T07:59:02.957Z,7.10
2023-04-15T08:00:02.873Z,7.10
2023-04-15T08:01:03.015Z,7.10
2023-04-15T08:02:03.045Z,7.10
2023-04-15T08:03:03.130Z,7.10
2023-04-15T08:04:03.181Z,7.10
2023-04-15T08:05:02.839Z,7.10
2023-04-15T08:06:02.851Z,7.10
2023-04-15T08:07:02.991Z,7.10
2023-04-15T08:08:03.066Z,7.10
2023-04-15T08:09:03.227Z,7.10
2023-04-15T08:10:03.051Z,7.10
2023-04-15T08:11:03.116Z,7.10
2023-04-15T08:12:03.219Z,7.10
2023-04-15T08:13:03.308Z,7.10
2023-04-15T08:14:03.251Z,7.10
2023-04-15T08:15:03.590Z,7.10
2023-04-15T08:16:03.539Z,7.10
2023-04-15T08:17:03.592Z,7.10
2023-04-15T08:18:02.638Z,7.10
2023-04-15T08:19:03.814Z,7.10
2023-04-15T08:20:03.556Z,7.10
2023-04-15T08:22:02.668Z,7.20
2023-04-15T08:23:02.674Z,7.20
2023-04-15T08:24:02.715Z,7.20
2023-04-15T08:25:02.837Z,7.20
2023-04-15T08:26:02.849Z,7.20
2023-04-15T08:27:02.868Z,7.20
2023-04-15T08:28:02.808Z,7.20
2023-04-15T08:29:02.885Z,7.20
2023-04-15T08:30:04.776Z,7.20
2023-04-15T08:31:02.892Z,7.20
2023-04-15T08:32:03.015Z,7.20
2023-04-15T08:33:02.991Z,7.20
2023-04-15T08:34:03.140Z,7.20
2023-04-15T08:35:03.288Z,7.20
2023-04-15T08:36:03.332Z,7.20
2023-04-15T08:37:03.212Z,7.20
2023-04-15T08:38:03.157Z,7.20
2023-04-15T08:39:03.504Z,7.30
2023-04-15T08:40:03.499Z,7.30
2023-04-15T08:41:03.470Z,7.30
2023-04-15T08:42:03.430Z,7.30
2023-04-15T08:43:03.541Z,7.30
2023-04-15T08:44:03.544Z,7.30
2023-04-15T08:45:03.478Z,7.30
2023-04-15T08:46:03.583Z,7.30
2023-04-15T08:47:02.877Z,7.30
2023-04-15T08:48:02.710Z,7.30
2023-04-15T08:49:02.804Z,7.30
2023-04-15T08:50:02.619Z,7.30
2023-04-15T08:51:02.747Z,7.30
2023-04-15T08:52:02.893Z,7.30
2023-04-15T08:53:02.917Z,7.30
2023-04-15T08:54:02.907Z,7.30
2023-04-15T08:55:03.017Z,7.30
2023-04-15T08:56:03.049Z,7.30
2023-04-15T08:57:03.120Z,7.30
2023-04-15T08:58:03.055Z,7.30
2023-04-15T08:59:03.223Z,7.40
2023-04-15T09:00:04.774Z,7.40
2023-04-15T09:01:03.174Z,7.40
2023-04-15T09:02:03.152Z,7.40
2023-04-15T09:03:03.310Z,7.40
2023-04-15T09:04:03.418Z,7.40
2023-04-15T09:05:03.391Z,7.40
2023-04-15T09:06:03.335Z,7.40
2023-04-15T09:07:03.324Z,7.40
2023-04-15T09:08:03.289Z,7.40
2023-04-15T09:09:03.566Z,7.40
2023-04-15T09:10:03.360Z,7.40
2023-04-15T09:11:03.324Z,7.50
2023-04-15T09:12:08.295Z,7.50
2023-04-15T09:13:03.241Z,7.50
2023-04-15T09:14:03.337Z,7.50
2023-04-15T09:15:03.308Z,7.50
2023-04-15T09:16:03.235Z,7.50
2023-04-15T09:17:03.314Z,7.50
2023-04-15T09:18:03.362Z,7.50
2023-04-15T09:19:03.285Z,7.60
2023-04-15T09:20:03.156Z,7.60
2023-04-15T09:21:03.119Z,7.60
2023-04-15T09:22:03.255Z,7.60
2023-04-15T09:23:03.137Z,7.60
2023-04-15T09:24:03.347Z,7.60
2023-04-15T09:25:03.208Z,7.60
2023-04-15T09:26:03.178Z,7.60
2023-04-15T09:27:03.093Z,7.60
2023-04-15T09:28:03.078Z,7.70
2023-04-15T09:29:03.084Z,7.70
2023-04-15T09:30:03.192Z,7.70
2023-04-15T09:31:03.242Z,7.70
2023-04-15T09:32:03.218Z,7.70
2023-04-15T09:33:03.285Z,7.70
2023-04-15T09:34:03.400Z,7.70
2023-04-15T09:35:03.393Z,7.70
2023-04-15T09:36:03.314Z,7.80
2023-04-15T09:37:03.535Z,7.80
2023-04-15T09:38:03.306Z,7.80
2023-04-15T09:39:03.306Z,7.80
2023-04-15T09:40:03.312Z,7.80
2023-04-15T09:41:03.522Z,7.80
2023-04-15T09:42:03.536Z,7.80
2023-04-15T09:43:02.699Z,7.80
2023-04-15T09:44:02.961Z,7.80
2023-04-15T09:45:02.759Z,7.80
2023-04-15T09:46:02.716Z,7.80
2023-04-15T09:47:02.807Z,7.80
2023-04-15T09:48:02.824Z,7.80
2023-04-15T09:49:02.871Z,7.80
2023-04-15T09:50:03.067Z,7.80
2023-04-15T09:51:02.913Z,7.80
2023-04-15T09:52:05.946Z,7.80
2023-04-15T09:53:02.964Z,7.80
2023-04-15T09:54:03.605Z,7.80
2023-04-15T09:55:03.693Z,7.80
2023-04-15T09:56:02.793Z,7.80
2023-04-15T09:57:02.770Z,7.90
2023-04-15T09:58:02.742Z,7.90
2023-04-15T09:59:02.817Z,7.90
2023-04-15T10:00:02.844Z,7.90
2023-04-15T10:01:02.927Z,7.90
2023-04-15T10:02:02.915Z,8.00
2023-04-15T10:03:03.028Z,8.00
2023-04-15T10:04:03.496Z,8.00
2023-04-15T10:05:03.216Z,8.00
2023-04-15T10:06:03.329Z,8.00
2023-04-15T10:07:03.408Z,8.10
2023-04-15T10:08:03.460Z,8.10
2023-04-15T10:09:03.571Z,8.10
2023-04-15T10:10:03.615Z,8.10
2023-04-15T10:11:03.656Z,8.20
2023-04-15T10:12:03.586Z,8.20
2023-04-15T10:13:03.612Z,8.20
2023-04-15T10:14:02.856Z,8.20
2023-04-15T10:15:02.783Z,8.20
2023-04-15T10:16:02.810Z,8.20
2023-04-15T10:17:02.839Z,8.20
2023-04-15T10:18:02.964Z,8.20
2023-04-15T10:19:03.070Z,8.20
2023-04-15T10:20:03.002Z,8.20
2023-04-15T10:21:02.925Z,8.20
2023-04-15T10:22:02.857Z,8.20
2023-04-15T10:23:02.780Z,8.20
2023-04-15T10:24:02.977Z,8.20
2023-04-15T10:25:02.828Z,8.20
2023-04-15T10:26:02.792Z,8.20
2023-04-15T10:27:03.019Z,8.20
2023-04-15T10:28:03.170Z,8.20
2023-04-15T10:29:03.162Z,8.20
2023-04-15T10:30:03.111Z,8.30
2023-04-15T10:31:03.158Z,8.30
2023-04-15T10:32:03.198Z,8.30
2023-04-15T10:33:03.136Z,8.30
2023-04-15T10:34:03.373Z,8.30
2023-04-15T10:35:03.263Z,8.30
2023-04-15T10:36:03.285Z,8.30
2023-04-15T10:37:03.212Z,8.30
2023-04-15T10:38:03.444Z,8.30
2023-04-15T10:39:03.337Z,8.30
2023-04-15T10:40:03.385Z,8.30
2023-04-15T10:41:03.377Z,8.30
2023-04-15T10:42:03.474Z,8.30
2023-04-15T10:43:03.505Z,8.20
2023-04-15T10:44:03.769Z,8.20
2023-04-15T10:45:03.526Z,8.20
2023-04-15T10:46:03.497Z,8.20
2023-04-15T10:47:03.553Z,8.20
2023-04-15T10:48:03.928Z,8.20
2023-04-15T10:49:03.643Z,8.20
2023-04-15T10:50:02.742Z,8.20
2023-04-15T10:51:02.850Z,8.20
2023-04-15T10:52:02.730Z,8.20
2023-04-15T10:53:02.739Z,8.20
2023-04-15T10:54:02.610Z,8.20
2023-04-15T10:55:02.799Z,8.20
2023-04-15T10:56:02.776Z,8.20
2023-04-15T10:57:02.861Z,8.20
2023-04-15T10:58:02.859Z,8.20
2023-04-15T10:59:02.922Z,8.20
2023-04-15T11:00:02.889Z,8.20
2023-04-15T11:01:03.010Z,8.20
2023-04-15T11:02:03.065Z,8.30
2023-04-15T11:03:03.022Z,8.20
2023-04-15T11:04:03.480Z,8.20
2023-04-15T11:05:03.086Z,8.30
2023-04-15T11:06:03.169Z,8.20
2023-04-15T11:07:03.219Z,8.30
2023-04-15T11:08:03.208Z,8.30
2023-04-15T11:09:03.160Z,8.30
2023-04-15T11:10:03.182Z,8.30
2023-04-15T11:11:03.223Z,8.30
2023-04-15T11:12:03.140Z,8.30
2023-04-15T11:13:03.167Z,8.30
2023-04-15T11:14:03.444Z,8.30
2023-04-15T11:15:03.110Z,8.30
2023-04-15T11:16:03.257Z,8.30
2023-04-15T11:17:03.024Z,8.30
2023-04-15T11:18:03.133Z,8.30
2023-04-15T11:19:03.041Z,8.30
2023-04-15T11:20:03.062Z,8.30
2023-04-15T11:21:03.145Z,8.30
2023-04-15T11:22:03.038Z,8.30
2023-04-15T11:23:08.068Z,8.30
2023-04-15T11:24:03.962Z,8.30
2023-04-15T11:25:03.038Z,8.30
2023-04-15T11:26:03.094Z,8.40
2023-04-15T11:27:03.141Z,8.40
2023-04-15T11:28:03.123Z,8.40
2023-04-15T11:29:03.167Z,8.40
2023-04-15T11:30:02.987Z,8.40
2023-04-15T11:31:02.950Z,8.40
2023-04-15T11:32:03.081Z,8.40
2023-04-15T11:33:03.044Z,8.40
2023-04-15T11:34:02.936Z,8.40
2023-04-15T11:35:03.026Z,8.40
2023-04-15T11:36:03.054Z,8.40
2023-04-15T11:37:03.203Z,8.40
2023-04-15T11:38:03.144Z,8.40
2023-04-15T11:39:03.332Z,8.50
2023-04-15T11:40:03.389Z,8.50
2023-04-15T11:41:03.444Z,8.50
2023-04-15T11:42:03.528Z,8.50
2023-04-15T11:43:03.533Z,8.50
2023-04-15T11:44:03.813Z,8.50
2023-04-15T11:45:03.572Z,8.50
2023-04-15T11:46:03.587Z,8.50
2023-04-15T11:47:03.658Z,8.50
2023-04-15T11:48:03.645Z,8.50
2023-04-15T11:49:03.593Z,8.50
2023-04-15T11:50:02.661Z,8.50
2023-04-15T11:51:02.664Z,8.50
2023-04-15T11:52:02.707Z,8.50
2023-04-15T11:53:02.663Z,8.50
2023-04-15T11:54:03.055Z,8.50
2023-04-15T11:55:02.729Z,8.50
2023-04-15T11:56:02.824Z,8.50
2023-04-15T11:57:02.839Z,8.50
2023-04-15T11:58:03.114Z,8.50
2023-04-15T11:59:03.199Z,8.50
2023-04-15T12:00:03.398Z,8.50
2023-04-15T12:01:03.330Z,8.50
2023-04-15T12:02:03.350Z,8.50
2023-04-15T12:03:03.596Z,8.50
2023-04-15T12:04:03.850Z,8.50
2023-04-15T12:05:03.546Z,8.60
2023-04-15T12:06:03.368Z,8.60
2023-04-15T12:07:03.366Z,8.60
2023-04-15T12:08:03.590Z,8.60
2023-04-15T12:09:03.618Z,8.60
2023-04-15T12:10:03.591Z,8.60
2023-04-15T12:11:03.600Z,8.60
2023-04-15T12:12:03.466Z,8.60
2023-04-15T12:13:03.490Z,8.60
2023-04-15T12:14:03.710Z,8.60
2023-04-15T12:15:03.604Z,8.60
2023-04-15T12:16:03.553Z,8.60
2023-04-15T12:17:03.707Z,8.60
2023-04-15T12:18:03.573Z,8.60
2023-04-15T12:19:03.592Z,8.60
2023-04-15T12:20:03.660Z,8.60
2023-04-15T12:21:03.519Z,8.60
2023-04-15T12:22:02.618Z,8.60
2023-04-15T12:23:02.792Z,8.60
2023-04-15T12:24:03.055Z,8.60
2023-04-15T12:25:02.829Z,8.60
2023-04-15T12:26:02.846Z,8.60
2023-04-15T12:27:02.829Z,8.70
2023-04-15T12:28:02.774Z,8.60
2023-04-15T12:29:02.903Z,8.60
2023-04-15T12:30:02.934Z,8.70
2023-04-15T12:31:02.996Z,8.70
2023-04-15T12:32:02.989Z,8.70
2023-04-15T12:33:03.194Z,8.70
2023-04-15T12:34:03.406Z,8.70
2023-04-15T12:35:03.389Z,8.70
2023-04-15T12:36:03.344Z,8.70
2023-04-15T12:37:03.358Z,8.70
2023-04-15T12:38:03.568Z,8.70
2023-04-15T12:39:03.573Z,8.70
2023-04-15T12:40:03.566Z,8.70
2023-04-15T12:41:02.733Z,8.70
2023-04-15T12:42:02.911Z,8.70
2023-04-15T12:43:02.961Z,8.70
2023-04-15T12:44:03.238Z,8.70
2023-04-15T12:45:03.074Z,8.70
2023-04-15T12:46:03.030Z,8.70
2023-04-15T12:47:03.135Z,8.70
2023-04-15T12:48:03.099Z,8.70
2023-04-15T12:49:03.000Z,8.70
2023-04-15T12:50:02.994Z,8.70
2023-04-15T12:51:05.175Z,8.70
2023-04-15T12:52:03.161Z,8.70
2023-04-15T12:53:03.093Z,8.70
2023-04-15T12:54:03.333Z,8.70
2023-04-15T12:55:03.110Z,8.70
2023-04-15T12:56:03.219Z,8.70
2023-04-15T12:57:05.487Z,8.70
2023-04-15T12:58:03.084Z,8.70
2023-04-15T12:59:03.075Z,8.70
2023-04-15T13:00:03.210Z,8.70
2023-04-15T13:01:03.170Z,8.70
2023-04-15T13:02:03.256Z,8.70
2023-04-15T13:03:04.784Z,8.70
2023-04-15T13:04:03.478Z,8.70
2023-04-15T13:05:03.091Z,8.70
2023-04-15T13:06:03.194Z,8.70
2023-04-15T13:07:03.066Z,8.70
2023-04-15T13:08:03.122Z,8.70
2023-04-15T13:09:04.579Z,8.70
2023-04-15T13:10:03.458Z,8.70
2023-04-15T13:11:03.404Z,8.70
2023-04-15T13:12:03.477Z,8.70
2023-04-15T13:13:03.578Z,8.70
2023-04-15T13:14:03.827Z,8.70
2023-04-15T13:15:05.531Z,8.70
2023-04-15T13:16:03.554Z,8.70
2023-04-15T13:17:02.803Z,8.70
2023-04-15T13:18:02.817Z,8.70
2023-04-15T13:19:02.704Z,8.80
2023-04-15T13:20:02.766Z,8.80